Time;durP1;ratioP1;P1;durP2;ratioP2;P2;SDS_P1;SDS_P2;PMS_P1;PMS_P2;Temp;Humidity;BMP_temperature;BMP_pressure;BME280_temperature;BME280_humidity;BME280_pressure;Samples;Min_cycle;Max_cycle;Signal;HPM_P1;HPM_P2
2022/05/20 00:00:36;;;;;;;5.95;2.17;;;13.50;99.90;;;;;;5068449;28;20044;-80
2022/05/20 00:03:02;;;;;;;5.72;2.80;;;13.50;99.90;;;;;;5084214;28;20123;-80
2022/05/20 00:05:28;;;;;;;3.28;2.67;;;13.50;99.90;;;;;;5084773;28;20090;-80
2022/05/20 00:07:55;;;;;;;3.72;2.80;;;13.50;99.90;;;;;;5084471;28;20048;-80
2022/05/20 00:10:21;;;;;;;6.38;3.13;;;13.50;99.90;;;;;;5085779;28;20051;-80
2022/05/20 00:12:47;;;;;;;8.98;4.38;;;13.50;99.90;;;;;;5068055;28;20127;-80
2022/05/20 00:15:17;;;;;;;5.75;4.70;;;13.50;99.90;;;;;;5083956;28;20047;-80
2022/05/20 00:17:43;;;;;;;6.18;4.38;;;13.50;99.90;;;;;;5067907;28;20059;-80
2022/05/20 00:20:11;;;;;;;5.00;4.50;;;13.50;99.90;;;;;;5084358;28;20393;-80
2022/05/20 00:22:37;;;;;;;8.27;5.22;;;13.50;99.90;;;;;;5086228;28;20043;-80
2022/05/20 00:27:47;;;;;;;8.70;5.13;;;13.40;99.90;;;;;;5089202;28;20044;-80
2022/05/20 00:30:13;;;;;;;9.88;4.75;;;13.50;99.90;;;;;;5090097;28;20549;-80
2022/05/20 00:32:40;;;;;;;6.45;5.22;;;13.50;99.90;;;;;;5088859;28;20042;-80
2022/05/20 00:35:07;;;;;;;5.53;4.45;;;13.40;99.90;;;;;;5088099;28;20139;-80
2022/05/20 00:37:33;;;;;;;5.78;4.07;;;13.40;99.90;;;;;;5088029;28;20102;-79
2022/05/20 00:39:59;;;;;;;5.95;4.00;;;13.40;99.90;;;;;;5089542;28;20113;-80
2022/05/20 00:42:26;;;;;;;7.38;4.35;;;13.30;99.90;;;;;;5088194;28;20492;-80
2022/05/20 00:44:51;;;;;;;8.13;4.45;;;13.30;99.90;;;;;;5070377;28;20048;-80
2022/05/20 00:47:17;;;;;;;7.13;4.45;;;13.30;99.90;;;;;;5089623;28;20044;-80
2022/05/20 00:49:48;;;;;;;11.07;4.90;;;13.20;99.90;;;;;;5088656;28;20123;-80
2022/05/20 00:52:17;;;;;;;11.50;4.28;;;13.10;99.90;;;;;;5088168;28;20048;-80
2022/05/20 00:54:47;;;;;;;8.48;4.95;;;13.00;99.90;;;;;;5087568;28;20040;-80
2022/05/20 00:57:17;;;;;;;7.15;5.10;;;13.00;99.90;;;;;;5089034;28;20108;-80
2022/05/20 00:59:50;;;;;;;7.72;4.47;;;12.90;99.90;;;;;;5089413;28;20075;-80
2022/05/20 01:02:19;;;;;;;8.43;5.60;;;12.80;99.90;;;;;;5088389;28;20127;-80
2022/05/20 01:04:46;;;;;;;7.28;5.38;;;12.80;99.90;;;;;;5088027;28;20083;-81
2022/05/20 01:07:14;;;;;;;12.20;7.15;;;12.70;99.90;;;;;;5087157;28;20106;-80
2022/05/20 01:09:39;;;;;;;9.90;5.85;;;12.70;99.90;;;;;;5089013;28;20036;-80
2022/05/20 01:12:06;;;;;;;12.80;7.05;;;12.60;99.90;;;;;;5089171;28;20043;-80
2022/05/20 01:14:33;;;;;;;10.23;7.03;;;12.60;99.90;;;;;;5088505;28;20492;-81
2022/05/20 01:16:58;;;;;;;13.45;6.95;;;12.50;99.90;;;;;;5089416;28;20094;-81
2022/05/20 01:19:38;;;;;;;11.40;6.90;;;12.50;99.90;;;;;;5088620;28;20410;-81
2022/05/20 01:22:06;;;;;;;10.82;7.38;;;12.50;99.90;;;;;;5089320;28;20044;-81
2022/05/20 01:24:33;;;;;;;14.68;9.07;;;12.50;99.90;;;;;;5088651;28;20431;-80
2022/05/20 01:26:59;;;;;;;11.07;8.52;;;12.40;99.90;;;;;;5088830;28;20105;-81
2022/05/20 01:29:25;;;;;;;15.27;8.68;;;12.30;99.90;;;;;;5088927;28;20040;-81
2022/05/20 01:31:51;;;;;;;12.65;9.07;;;12.30;99.90;;;;;;5086811;28;20413;-81
2022/05/20 01:34:17;;;;;;;14.02;9.48;;;12.30;99.90;;;;;;5070299;28;20101;-80
2022/05/20 01:36:42;;;;;;;13.65;9.35;;;12.20;99.90;;;;;;5086796;28;20055;-81
2022/05/20 01:39:08;;;;;;;13.43;9.65;;;12.20;99.90;;;;;;5088637;28;20132;-80
2022/05/20 01:41:50;;;;;;;10.50;8.73;;;12.20;99.90;;;;;;5087715;28;20082;-80
2022/05/20 01:44:31;;;;;;;15.25;10.57;;;12.10;99.90;;;;;;5087029;28;20077;-80
2022/05/20 01:47:16;;;;;;;16.77;10.27;;;12.10;99.90;;;;;;5089459;28;20390;-80
2022/05/20 01:49:56;;;;;;;19.05;10.40;;;12.10;99.90;;;;;;5087779;28;20054;-80
2022/05/20 01:52:48;;;;;;;13.82;9.73;;;12.10;99.90;;;;;;5086564;28;20636;-80
2022/05/20 01:55:35;;;;;;;18.95;10.55;;;12.10;99.90;;;;;;5084938;28;20048;-80
2022/05/20 01:58:29;;;;;;;15.18;9.25;;;12.10;99.90;;;;;;5086079;28;20048;-80
2022/05/20 02:00:59;;;;;;;16.60;10.60;;;13.00;99.90;;;;;;5079414;28;20059;-80
2022/05/20 02:03:31;;;;;;;11.30;9.00;;;12.10;99.90;;;;;;5086597;28;20044;-81
2022/05/20 02:06:07;;;;;;;14.65;9.35;;;12.10;99.90;;;;;;5087715;28;20103;-80
2022/05/20 02:08:43;;;;;;;11.27;9.38;;;12.00;99.90;;;;;;5087846;28;20525;-80
2022/05/20 02:11:31;;;;;;;12.52;9.55;;;12.10;99.90;;;;;;5087338;28;20036;-80
2022/05/20 02:14:06;;;;;;;14.75;9.07;;;12.00;99.90;;;;;;5086080;28;20055;-80
2022/05/20 02:16:37;;;;;;;12.77;9.20;;;12.00;99.90;;;;;;5088168;28;20451;-80
2022/05/20 02:19:13;;;;;;;12.80;9.15;;;12.00;99.90;;;;;;5085411;28;20046;-80
2022/05/20 02:21:47;;;;;;;11.02;8.27;;;12.00;99.90;;;;;;5086365;28;20044;-80
2022/05/20 02:24:18;;;;;;;13.82;9.32;;;12.00;99.90;;;;;;5085403;28;20056;-80
2022/05/20 02:27:03;;;;;;;11.88;9.77;;;12.00;99.90;;;;;;5087175;28;20059;-80
2022/05/20 02:29:59;;;;;;;15.25;9.40;;;11.90;99.90;;;;;;5086176;28;20043;-80
2022/05/20 02:32:39;;;;;;;12.68;9.70;;;11.90;99.90;;;;;;5085360;28;20501;-80
2022/05/20 02:35:05;;;;;;;16.77;9.38;;;11.90;99.90;;;;;;5085619;28;20558;-80
2022/05/20 02:37:34;;;;;;;18.05;9.95;;;11.80;99.90;;;;;;5085475;28;20093;-80
2022/05/20 02:40:01;;;;;;;13.20;9.52;;;11.80;99.90;;;;;;5085267;28;20044;-80
2022/05/20 02:42:28;;;;;;;17.38;9.98;;;11.80;99.90;;;;;;5068984;28;20132;-80
2022/05/20 02:44:55;;;;;;;18.77;9.82;;;11.90;99.90;;;;;;5085030;28;20040;-80
2022/05/20 02:47:21;;;;;;;17.10;10.43;;;11.80;99.90;;;;;;5085282;28;20480;-80
2022/05/20 02:49:47;;;;;;;13.40;9.70;;;11.90;99.90;;;;;;5085301;28;20043;-80
2022/05/20 02:52:13;;;;;;;14.43;10.25;;;11.90;99.90;;;;;;5087252;28;20044;-80
2022/05/20 02:54:39;;;;;;;17.90;9.30;;;11.90;99.90;;;;;;5086939;28;20083;-80
2022/05/20 02:57:05;;;;;;;22.23;10.45;;;11.90;99.90;;;;;;5068155;28;20079;-80
2022/05/20 03:05:00;;;;;;;17.85;9.20;;;12.20;99.90;;;;;;5085289;28;20505;-81
2022/05/20 03:07:26;;;;;;;14.57;8.82;;;11.90;99.90;;;;;;5068254;28;20109;-80
2022/05/20 03:09:52;;;;;;;15.48;9.15;;;12.00;99.90;;;;;;5086078;28;20036;-80
2022/05/20 03:12:18;;;;;;;23.73;9.15;;;11.90;99.90;;;;;;5068478;28;20075;-80
2022/05/20 03:14:44;;;;;;;11.68;8.43;;;11.90;99.90;;;;;;5086038;28;20040;-80
2022/05/20 03:17:10;;;;;;;12.95;8.60;;;11.90;99.90;;;;;;5085455;28;20044;-80
2022/05/20 03:19:37;;;;;;;14.40;8.32;;;11.90;99.90;;;;;;5084479;28;20051;-80
2022/05/20 03:22:04;;;;;;;15.02;8.18;;;11.90;99.90;;;;;;5068920;28;20051;-81
2022/05/20 03:24:30;;;;;;;17.20;9.05;;;11.80;99.90;;;;;;5084815;28;20040;-80
2022/05/20 03:26:56;;;;;;;13.82;8.40;;;12.10;99.90;;;;;;5084737;28;20037;-79
2022/05/20 03:29:22;;;;;;;17.27;8.93;;;11.80;99.90;;;;;;5086693;28;20191;-80
2022/05/20 03:31:48;;;;;;;17.27;8.90;;;12.20;99.90;;;;;;5085848;28;20074;-80
2022/05/20 03:34:15;;;;;;;15.68;8.05;;;11.70;99.90;;;;;;5087160;28;20054;-80
2022/05/20 03:36:43;;;;;;;14.88;8.88;;;12.20;99.90;;;;;;5085799;28;20967;-80
2022/05/20 03:39:12;;;;;;;15.05;8.65;;;11.70;99.90;;;;;;5086754;28;20400;-80
2022/05/20 03:41:38;;;;;;;17.05;10.13;;;12.30;99.90;;;;;;5087198;28;20090;-80
2022/05/20 03:44:06;;;;;;;16.08;9.15;;;11.70;99.90;;;;;;5085101;28;20381;-80
2022/05/20 03:46:32;;;;;;;13.27;8.48;;;11.60;99.90;;;;;;5085746;28;20101;-80
2022/05/20 03:49:01;;;;;;;17.85;8.55;;;11.60;99.90;;;;;;5085545;28;20044;-80
2022/05/20 03:51:27;;;;;;;14.48;9.23;;;12.10;99.90;;;;;;5051863;28;20044;-79
2022/05/20 03:53:52;;;;;;;15.10;9.63;;;11.60;99.90;;;;;;5085353;28;20371;-81
2022/05/20 03:56:18;;;;;;;15.90;9.93;;;11.60;99.90;;;;;;5086238;28;20040;-80
2022/05/20 03:58:44;;;;;;;16.67;9.82;;;11.60;99.90;;;;;;5089595;28;20044;-80
2022/05/20 04:03:55;;;;;;;17.17;11.38;;;11.70;99.90;;;;;;5090999;28;20044;-80
2022/05/20 04:06:24;;;;;;;17.13;11.18;;;11.60;99.90;;;;;;5089278;28;20508;-80
2022/05/20 04:08:49;;;;;;;24.48;10.82;;;11.70;99.90;;;;;;5089145;28;20527;-80
2022/05/20 04:11:16;;;;;;;18.13;11.32;;;11.70;99.90;;;;;;5089337;28;20048;-80
2022/05/20 04:13:42;;;;;;;19.67;11.95;;;11.70;99.90;;;;;;5071979;28;20405;-80
2022/05/20 04:16:10;;;;;;;19.58;11.50;;;11.80;99.90;;;;;;5088899;28;20423;-79
2022/05/20 04:18:38;;;;;;;16.15;11.27;;;11.90;99.90;;;;;;5089537;28;20138;-80
2022/05/20 04:21:04;;;;;;;19.15;12.38;;;11.90;99.90;;;;;;5090409;28;20059;-79
2022/05/20 04:23:30;;;;;;;18.02;11.85;;;12.20;99.90;;;;;;5088880;28;20087;-80
2022/05/20 04:25:56;;;;;;;16.60;11.52;;;12.10;99.90;;;;;;5089985;28;20044;-79
2022/05/20 04:28:22;;;;;;;18.77;10.68;;;12.10;99.90;;;;;;5088026;28;20421;-79
2022/05/20 04:30:48;;;;;;;15.63;10.90;;;12.20;99.90;;;;;;5089673;28;20040;-79
2022/05/20 04:33:14;;;;;;;17.00;11.05;;;12.20;99.90;;;;;;5088128;28;20052;-79
2022/05/20 04:35:40;;;;;;;24.17;11.60;;;12.30;99.90;;;;;;5087419;28;20078;-79
2022/05/20 04:38:05;;;;;;;15.43;10.38;;;12.30;99.90;;;;;;5055090;28;20066;-79
2022/05/20 04:40:31;;;;;;;15.98;11.77;;;12.30;99.90;;;;;;5087232;28;20083;-80
2022/05/20 04:48:26;;;;;;;16.70;10.98;;;12.30;99.90;;;;;;5087889;28;20055;-79
2022/05/20 04:50:52;;;;;;;15.98;11.60;;;12.50;99.90;;;;;;5071689;28;20093;-79
2022/05/20 04:56:02;;;;;;;16.42;9.93;;;12.50;99.90;;;;;;5088056;28;20055;-79
2022/05/20 04:58:28;;;;;;;15.95;10.20;;;12.50;99.90;;;;;;5087172;28;20075;-80
2022/05/20 05:00:58;;;;;;;12.98;9.88;;;12.50;99.90;;;;;;5070808;28;20087;-80
2022/05/20 05:03:24;;;;;;;17.08;11.20;;;12.80;99.90;;;;;;5087812;28;20131;-80
2022/05/20 05:05:50;;;;;;;14.23;10.85;;;12.60;99.90;;;;;;5070013;28;20049;-79
2022/05/20 05:08:17;;;;;;;14.40;10.05;;;12.70;99.90;;;;;;5088580;28;20040;-80
2022/05/20 05:10:44;;;;;;;18.02;10.40;;;12.70;99.90;;;;;;5088311;28;20123;-79
2022/05/20 05:13:11;;;;;;;13.65;8.85;;;12.70;99.90;;;;;;5070858;28;20048;-78
2022/05/20 05:15:37;;;;;;;13.38;9.18;;;12.70;99.90;;;;;;5086797;28;20619;-78
2022/05/20 05:18:09;;;;;;;16.25;8.75;;;12.80;99.90;;;;;;5088280;28;20107;-78
2022/05/20 05:20:39;;;;;;;13.05;8.93;;;12.90;99.90;;;;;;5070459;28;20123;-79
2022/05/20 05:23:05;;;;;;;12.65;8.43;;;12.90;99.90;;;;;;5087007;28;20040;-80
2022/05/20 05:25:33;;;;;;;18.00;9.38;;;13.00;99.90;;;;;;5087275;28;20043;-81
2022/05/20 05:27:59;;;;;;;16.02;8.88;;;13.10;99.90;;;;;;5086779;28;20085;-82
2022/05/20 05:30:25;;;;;;;13.25;8.48;;;13.20;99.90;;;;;;5088861;28;20036;-82
2022/05/20 05:32:51;;;;;;;12.77;8.27;;;13.20;99.90;;;;;;5088063;28;20044;-81
2022/05/20 05:35:23;;;;;;;15.45;8.65;;;13.30;99.90;;;;;;5087833;28;20082;-83
2022/05/20 05:37:49;;;;;;;14.77;9.00;;;13.40;99.90;;;;;;5089395;28;20123;-81
2022/05/20 05:40:21;;;;;;;15.65;8.05;;;13.40;99.90;;;;;;5088993;28;20463;-81
2022/05/20 05:42:47;;;;;;;11.82;7.85;;;13.50;99.90;;;;;;5088081;28;20040;-83
2022/05/20 05:45:16;;;;;;;23.83;9.10;;;13.60;99.90;;;;;;5087490;28;20048;-84
2022/05/20 05:47:41;;;;;;;18.73;8.23;;;13.60;99.90;;;;;;5086686;28;20089;-83
2022/05/20 05:50:08;;;;;;;12.77;7.53;;;14.40;99.90;;;;;;5086701;28;20044;-81
2022/05/20 05:52:34;;;;;;;11.02;7.30;;;13.80;99.90;;;;;;5086777;28;20080;-80
2022/05/20 05:55:03;;;;;;;13.98;7.38;;;13.90;99.90;;;;;;5088594;28;20385;-80
2022/05/20 05:57:29;;;;;;;14.13;7.57;;;13.90;99.90;;;;;;5085769;28;20073;-79
2022/05/20 05:59:55;;;;;;;13.10;8.00;;;13.90;99.90;;;;;;5087094;28;20044;-82
2022/05/20 06:02:21;;;;;;;10.13;6.95;;;14.00;99.90;;;;;;5052399;28;20036;-79
2022/05/20 06:04:51;;;;;;;11.60;6.85;;;14.10;99.90;;;;;;5086363;28;20051;-79
2022/05/20 06:07:18;;;;;;;9.07;6.70;;;14.10;99.90;;;;;;5087024;28;20362;-78
2022/05/20 06:09:45;;;;;;;13.45;7.88;;;14.20;99.90;;;;;;5086006;28;20074;-78
2022/05/20 06:12:12;;;;;;;11.05;7.55;;;14.20;99.90;;;;;;5088138;28;20048;-77
2022/05/20 06:14:38;;;;;;;15.82;7.10;;;14.20;99.90;;;;;;5087264;28;20052;-77
2022/05/20 06:17:04;;;;;;;11.00;6.85;;;14.30;99.90;;;;;;5088031;28;20051;-80
2022/05/20 06:19:30;;;;;;;6.93;5.93;;;14.40;99.90;;;;;;5087346;28;20047;-79
2022/05/20 06:21:55;;;;;;;9.15;6.47;;;14.40;99.90;;;;;;5087500;28;20374;-78
2022/05/20 06:24:21;;;;;;;19.65;6.72;;;14.50;99.90;;;;;;5085766;28;20044;-79
2022/05/20 06:26:47;;;;;;;8.93;5.25;;;14.60;99.90;;;;;;5087115;28;20044;-79
2022/05/20 06:29:13;;;;;;;10.73;5.90;;;14.60;99.90;;;;;;5086739;28;20822;-79
2022/05/20 06:31:38;;;;;;;11.85;5.82;;;14.60;99.90;;;;;;5086528;28;20040;-79
2022/05/20 06:34:04;;;;;;;12.02;5.93;;;14.70;99.90;;;;;;5087597;28;20151;-80
2022/05/20 06:41:58;;;;;;;9.73;6.15;;;15.20;99.90;;;;;;5086181;28;20678;-83
2022/05/20 06:44:24;;;;;;;10.23;5.78;;;15.40;99.90;;;;;;5086470;28;20047;-82
2022/05/20 06:46:50;;;;;;;13.57;5.38;;;15.70;99.90;;;;;;5087461;28;20067;-83
2022/05/20 06:49:17;;;;;;;9.13;6.05;;;15.90;99.90;;;;;;5086041;28;20051;-83
2022/05/20 06:51:42;;;;;;;8.95;5.40;;;16.00;99.90;;;;;;5087381;28;20055;-82
2022/05/20 06:54:11;;;;;;;6.38;5.10;;;16.00;99.90;;;;;;5085427;28;20040;-83
2022/05/20 06:56:38;;;;;;;9.55;4.18;;;16.00;99.90;;;;;;5084791;28;20043;-83
2022/05/20 06:59:05;;;;;;;8.70;4.57;;;16.00;99.90;;;;;;5087567;28;20044;-83
2022/05/20 07:01:32;;;;;;;6.45;4.40;;;16.00;99.90;;;;;;5085918;28;20115;-82
2022/05/20 07:03:58;;;;;;;8.73;3.15;;;16.00;99.90;;;;;;5087529;28;20063;-81
2022/05/20 07:06:25;;;;;;;9.07;2.90;;;16.00;99.90;;;;;;5084899;28;20043;-81
2022/05/20 07:08:52;;;;;;;10.68;3.22;;;16.00;99.90;;;;;;5086198;28;20052;-81
2022/05/20 07:11:20;;;;;;;6.18;3.10;;;16.00;99.90;;;;;;5084926;28;20036;-81
2022/05/20 07:13:47;;;;;;;8.45;3.28;;;16.00;99.90;;;;;;5084407;28;20036;-81
2022/05/20 07:16:14;;;;;;;7.80;4.10;;;16.00;99.90;;;;;;5087126;28;20048;-81
2022/05/20 07:18:40;;;;;;;9.90;4.18;;;16.10;99.90;;;;;;5085903;28;20435;-81
2022/05/20 07:21:06;;;;;;;8.52;3.92;;;16.20;99.90;;;;;;5085254;28;20035;-81
2022/05/20 07:23:33;;;;;;;6.07;3.15;;;16.30;99.90;;;;;;5084337;28;20051;-81
2022/05/20 07:26:00;;;;;;;10.60;3.83;;;16.50;99.90;;;;;;5085155;28;20528;-81
2022/05/20 07:28:28;;;;;;;7.28;3.20;;;16.70;99.90;;;;;;5086775;28;20086;-81
2022/05/20 07:30:54;;;;;;;6.28;3.20;;;16.70;99.90;;;;;;5086396;28;20127;-81
2022/05/20 07:33:20;;;;;;;8.95;3.40;;;16.90;99.90;;;;;;5091363;28;20044;-83
2022/05/20 07:35:45;;;;;;;7.07;3.20;;;17.00;99.90;;;;;;5089673;28;20048;-81
2022/05/20 07:38:12;;;;;;;6.07;2.03;;;16.90;99.90;;;;;;5090841;28;20370;-83
2022/05/20 07:40:38;;;;;;;7.65;2.45;;;16.90;99.90;;;;;;5070187;28;20077;-83
2022/05/20 07:43:04;;;;;;;3.13;1.75;;;17.00;99.90;;;;;;5087514;28;20139;-84
2022/05/20 07:45:30;;;;;;;4.43;1.58;;;17.00;99.90;;;;;;5053029;28;20044;-84
2022/05/20 07:47:56;;;;;;;10.18;2.60;;;17.90;99.90;;;;;;5053418;28;20492;-85
2022/05/20 07:50:22;;;;;;;6.22;2.30;;;17.00;99.90;;;;;;5088628;28;20062;-82
2022/05/20 07:55:46;;;;;;;5.40;2.20;;;17.00;99.90;;;;;;5089139;28;20044;-83
2022/05/20 07:58:17;;;;;;;6.88;2.00;;;17.00;99.90;;;;;;5087018;28;20516;-85
2022/05/20 08:00:43;;;;;;;6.88;1.67;;;17.00;99.90;;;;;;5086198;28;20055;-80
2022/05/20 08:03:13;;;;;;;5.45;1.88;;;16.90;99.90;;;;;;5088016;28;20516;-80
2022/05/20 08:05:39;;;;;;;6.28;1.88;;;16.90;99.90;;;;;;5085769;28;20099;-80
2022/05/20 08:08:07;;;;;;;6.47;2.38;;;17.10;99.90;;;;;;5087969;28;20569;-78
2022/05/20 08:10:35;;;;;;;6.03;2.33;;;17.30;99.90;;;;;;5084917;28;20081;-76
2022/05/20 08:13:02;;;;;;;8.73;2.17;;;17.40;99.90;;;;;;5069322;28;20044;-78
2022/05/20 08:15:29;;;;;;;4.53;2.08;;;17.50;99.90;;;;;;5085165;28;20496;-77
2022/05/20 08:17:55;;;;;;;5.38;1.98;;;17.60;99.90;;;;;;5086419;28;20131;-77
2022/05/20 08:20:25;;;;;;;3.47;2.50;;;17.50;99.90;;;;;;5086103;28;20093;-79
2022/05/20 08:22:56;;;;;;;6.10;1.75;;;17.50;99.90;;;;;;5086261;28;20041;-78
2022/05/20 08:25:24;;;;;;;3.92;1.02;;;17.50;99.90;;;;;;5087312;28;20040;-78
2022/05/20 08:27:49;;;;;;;7.35;1.23;;;17.50;99.90;;;;;;5085898;28;20485;-78
2022/05/20 08:30:24;;;;;;;3.70;0.90;;;17.60;99.90;;;;;;5085667;28;20141;-78
2022/05/20 08:32:50;;;;;;;3.05;0.95;;;17.60;99.90;;;;;;5085719;28;20044;-77
2022/05/20 08:35:16;;;;;;;5.88;1.15;;;17.80;99.90;;;;;;5066237;28;20500;-78
2022/05/20 08:37:45;;;;;;;2.05;0.95;;;18.00;99.90;;;;;;5067773;28;20044;-77
2022/05/20 08:40:31;;;;;;;1.90;0.70;;;18.20;99.90;;;;;;5083662;28;20070;-80
2022/05/20 08:43:00;;;;;;;4.10;1.00;;;18.30;99.90;;;;;;5084724;28;20055;-77
2022/05/20 08:45:28;;;;;;;3.45;1.40;;;18.30;99.90;;;;;;5087391;28;20066;-76
2022/05/20 08:47:55;;;;;;;2.75;1.00;;;18.30;99.90;;;;;;5070531;28;20040;-77
2022/05/20 08:50:38;;;;;;;5.95;1.38;;;18.30;99.90;;;;;;5088355;28;20448;-77
2022/05/20 08:53:10;;;;;;;5.47;0.95;;;18.50;99.90;;;;;;5087257;28;20473;-80
2022/05/20 08:55:41;;;;;;;5.45;1.10;;;18.60;99.90;;;;;;5088433;28;20040;-79
2022/05/20 08:58:11;;;;;;;3.13;0.70;;;18.90;99.90;;;;;;5088524;28;20044;-79
2022/05/20 09:00:36;;;;;;;4.75;0.90;;;19.10;99.90;;;;;;5086838;28;20046;-78
2022/05/20 09:03:06;;;;;;;3.17;0.88;;;19.20;99.90;;;;;;5089548;28;20035;-78
2022/05/20 09:05:38;;;;;;;4.25;1.08;;;19.30;99.90;;;;;;5086918;28;20040;-78
2022/05/20 09:08:16;;;;;;;1.98;1.00;;;19.40;99.90;;;;;;5089539;28;20040;-79
2022/05/20 09:10:56;;;;;;;3.55;1.25;;;19.40;99.90;;;;;;5088447;28;20044;-79
2022/05/20 09:13:22;;;;;;;6.13;1.52;;;19.50;99.90;;;;;;5088466;28;20532;-80
2022/05/20 09:16:01;;;;;;;4.28;0.80;;;19.50;99.90;;;;;;5088902;28;20480;-80
2022/05/20 09:18:47;;;;;;;4.65;1.48;;;19.50;99.90;;;;;;5069436;28;20280;-79
2022/05/20 09:21:33;;;;;;;5.78;1.58;;;19.50;99.90;;;;;;5087483;28;20043;-78
2022/05/20 09:24:04;;;;;;;3.42;1.23;;;19.50;99.90;;;;;;5087323;28;20643;-79
2022/05/20 09:26:37;;;;;;;8.15;1.10;;;19.50;99.90;;;;;;5088176;28;20459;-79
2022/05/20 09:29:14;;;;;;;5.30;1.00;;;19.60;99.90;;;;;;5088848;28;20051;-79
2022/05/20 09:31:58;;;;;;;2.70;0.98;;;19.80;99.90;;;;;;5088262;28;20232;-80
2022/05/20 09:34:26;;;;;;;2.90;1.02;;;19.90;99.90;;;;;;5088013;28;20060;-79
2022/05/20 09:37:25;;;;;;;4.53;1.60;;;20.00;99.90;;;;;;5088059;28;20044;-79
2022/05/20 09:39:51;;;;;;;4.65;1.23;;;20.10;99.90;;;;;;5078269;28;20401;-80
2022/05/20 09:42:23;;;;;;;4.45;1.58;;;20.10;99.90;;;;;;5087092;28;20182;-79
2022/05/20 09:44:52;;;;;;;4.75;1.45;;;20.20;99.90;;;;;;5069451;28;20401;-79
2022/05/20 09:47:18;;;;;;;3.22;1.45;;;20.20;99.90;;;;;;5086640;28;20481;-79
2022/05/20 09:50:19;;;;;;;4.18;1.70;;;20.20;99.90;;;;;;5086439;28;20051;-79
2022/05/20 09:52:58;;;;;;;6.47;1.90;;;20.30;99.90;;;;;;5069690;28;20104;-79
2022/05/20 09:55:29;;;;;;;7.03;1.80;;;20.30;99.90;;;;;;5069766;28;20062;-79
2022/05/20 09:58:09;;;;;;;7.30;2.00;;;20.30;99.90;;;;;;5069761;28;20059;-79
2022/05/20 10:00:36;;;;;;;4.10;1.75;;;20.30;99.90;;;;;;5085694;28;20040;-79
2022/05/20 10:03:40;;;;;;;5.03;1.70;;;20.40;99.90;;;;;;5069931;28;20476;-79
2022/05/20 10:06:28;;;;;;;5.35;2.00;;;20.30;99.90;;;;;;5066801;28;20058;-79
2022/05/20 10:08:56;;;;;;;5.15;1.50;;;20.30;99.90;;;;;;5085898;28;20059;-78
2022/05/20 10:11:27;;;;;;;6.68;2.03;;;20.30;99.90;;;;;;5087811;28;20126;-79
2022/05/20 10:14:10;;;;;;;5.60;1.58;;;20.30;99.90;;;;;;5085117;28;20046;-81
2022/05/20 10:16:47;;;;;;;4.85;1.38;;;20.20;99.90;;;;;;5088145;28;20416;-81
2022/05/20 10:19:33;;;;;;;5.18;1.80;;;20.20;99.90;;;;;;5087027;28;20048;-79
2022/05/20 10:36:47;;;;;;;4.80;1.27;;;20.20;99.90;;;;;;4975281;28;20188;-77
2022/05/20 10:39:26;;;;;;;2.50;0.75;;;20.40;99.90;;;;;;4989744;28;20132;-75
2022/05/20 10:42:39;;;;;;;1.48;0.95;;;20.50;99.90;;;;;;4973393;28;20046;-75
2022/05/20 10:48:45;;;;;;;3.45;1.10;;;20.60;99.90;;;;;;4989095;28;20049;-77
2022/05/20 10:51:11;;;;;;;3.03;1.10;;;20.70;99.90;;;;;;4973050;28;20255;-77
2022/05/20 10:53:54;;;;;;;3.50;1.30;;;20.70;99.90;;;;;;4988952;28;20529;-77
2022/05/20 10:56:49;;;;;;;5.60;1.98;;;20.80;99.90;;;;;;4988899;28;20080;-77
2022/05/20 10:59:43;;;;;;;2.80;1.10;;;20.80;99.90;;;;;;4973091;28;20085;-77
2022/05/20 11:02:27;;;;;;;2.97;1.17;;;21.00;99.90;;;;;;4973187;28;20046;-77
2022/05/20 11:05:23;;;;;;;5.55;3.28;;;21.00;99.90;;;;;;4972577;28;20050;-77
2022/05/20 11:08:03;;;;;;;13.30;8.93;;;21.10;99.90;;;;;;4988845;28;20053;-77
2022/05/20 11:10:38;;;;;;;4.10;1.55;;;21.10;99.90;;;;;;4988723;28;20046;-77
2022/05/20 11:13:30;;;;;;;2.10;1.00;;;21.20;99.90;;;;;;4988279;28;20050;-77
2022/05/20 11:16:39;;;;;;;4.88;1.50;;;21.20;95.50;;;;;;4972766;28;20073;-77
2022/05/20 11:19:20;;;;;;;3.83;1.55;;;21.20;92.50;;;;;;4988006;28;20074;-79
2022/05/20 11:22:27;;;;;;;4.57;1.85;;;21.10;97.90;;;;;;4988612;28;20054;-78
2022/05/20 11:25:01;;;;;;;2.83;1.83;;;21.10;98.40;;;;;;4933244;29;20070;-78
2022/05/20 11:27:56;;;;;;;6.15;2.03;;;21.10;99.50;;;;;;4917349;29;20455;-77
2022/05/20 11:30:47;;;;;;;2.38;1.27;;;21.20;98.00;;;;;;4973217;28;20062;-77
2022/05/20 11:33:48;;;;;;;2.08;1.25;;;21.30;98.90;;;;;;4969508;28;20034;-77
2022/05/20 11:36:19;;;;;;;4.32;1.77;;;21.50;96.70;;;;;;4948254;28;20058;-76
2022/05/20 11:39:15;;;;;;;3.97;1.77;;;21.60;97.70;;;;;;4969492;28;20078;-77
2022/05/20 11:42:18;;;;;;;4.90;1.73;;;21.60;97.10;;;;;;4969444;28;20496;-77
2022/05/20 11:45:10;;;;;;;3.77;1.70;;;21.70;94.10;;;;;;4968991;28;20101;-77
2022/05/20 11:48:00;;;;;;;2.45;1.63;;;21.70;93.50;;;;;;4969144;28;20055;-77
2022/05/20 11:50:50;;;;;;;4.35;1.92;;;21.80;92.80;;;;;;4969289;28;20063;-77
2022/05/20 11:53:18;;;;;;;4.35;1.70;;;21.90;94.80;;;;;;4953278;28;20452;-78
2022/05/20 11:56:08;;;;;;;2.70;1.58;;;22.00;95.20;;;;;;4968931;28;20038;-78
2022/05/20 11:58:47;;;;;;;1.73;1.33;;;22.00;87.10;;;;;;4953142;28;20566;-77
2022/05/20 12:01:13;;;;;;;3.92;1.60;;;22.10;91.10;;;;;;4968814;28;20057;-77
2022/05/20 12:06:30;;;;;;;5.15;2.17;;;22.20;86.10;;;;;;4968762;28;20062;-78
2022/05/20 12:09:02;;;;;;;2.40;1.30;;;22.30;90.50;;;;;;4952751;28;20043;-78
2022/05/20 12:11:37;;;;;;;4.90;2.25;;;22.20;85.80;;;;;;4970175;28;20518;-78
2022/05/20 12:14:07;;;;;;;5.60;1.63;;;22.20;88.00;;;;;;4968973;28;20126;-77
2022/05/20 12:16:53;;;;;;;6.78;1.60;;;22.20;80.90;;;;;;4953002;28;20054;-77
2022/05/20 12:24:54;;;;;;;5.25;2.05;;;22.00;86.20;;;;;;4974487;28;20108;-77
2022/05/20 12:27:25;;;;;;;5.88;2.13;;;21.90;89.70;;;;;;4973882;28;20114;-83
2022/05/20 12:30:27;;;;;;;5.82;2.28;;;21.90;90.70;;;;;;4956402;28;20372;-81
2022/05/20 12:32:54;;;;;;;2.90;2.00;;;22.00;87.10;;;;;;4972699;28;20069;-81
2022/05/20 12:36:05;;;;;;;4.60;2.90;;;22.00;88.10;;;;;;4972149;28;20046;-81
2022/05/20 12:38:31;;;;;;;6.55;2.53;;;22.00;79.30;;;;;;4974034;28;20062;-80
2022/05/20 12:40:58;;;;;;;5.30;2.90;;;22.00;88.10;;;;;;4972405;28;20073;-80
2022/05/20 12:43:46;;;;;;;8.00;3.22;;;22.00;90.20;;;;;;4955814;28;20495;-80
2022/05/20 12:46:22;;;;;;;8.82;3.50;;;22.20;85.30;;;;;;4972337;28;20133;-80
2022/05/20 12:48:50;;;;;;;4.85;2.50;;;22.50;91.00;;;;;;4956080;28;20177;-81
2022/05/20 12:51:15;;;;;;;3.83;2.03;;;22.60;89.90;;;;;;4971806;28;20061;-78
2022/05/20 12:53:41;;;;;;;4.63;2.30;;;22.60;89.10;;;;;;4939795;28;20043;-79
2022/05/20 12:56:25;;;;;;;4.15;2.58;;;22.70;88.20;;;;;;4971883;28;20053;-81
2022/05/20 12:58:51;;;;;;;4.55;2.65;;;22.60;79.40;;;;;;4972130;28;20575;-80
2022/05/20 13:01:17;;;;;;;5.65;2.60;;;22.40;83.50;;;;;;4972002;28;20129;-80
2022/05/20 13:03:45;;;;;;;5.63;2.28;;;22.30;84.00;;;;;;4956133;28;20400;-78
2022/05/20 13:06:30;;;;;;;5.50;2.25;;;22.20;85.70;;;;;;4955520;28;20117;-80
2022/05/20 13:09:02;;;;;;;4.35;2.78;;;22.20;81.10;;;;;;4960748;28;20058;-80
2022/05/20 13:11:41;;;;;;;7.03;2.28;;;22.20;82.80;;;;;;4960963;28;20484;-80
2022/05/20 13:14:12;;;;;;;4.00;2.75;;;22.20;84.80;;;;;;4976377;28;20085;-80
2022/05/20 13:16:39;;;;;;;6.78;3.65;;;22.00;87.50;;;;;;4976099;28;20117;-81
2022/05/20 13:19:31;;;;;;;5.38;3.33;;;21.90;90.10;;;;;;4976138;28;20047;-81
2022/05/20 13:22:02;;;;;;;5.38;3.17;;;21.80;86.80;;;;;;4976028;28;20065;-82
2022/05/20 13:24:33;;;;;;;4.30;2.80;;;21.60;90.60;;;;;;4976416;28;20043;-82
2022/05/20 13:27:13;;;;;;;5.50;2.90;;;21.40;91.00;;;;;;4959812;28;20284;-82
2022/05/20 13:29:42;;;;;;;3.80;2.58;;;21.30;87.30;;;;;;4976034;28;20049;-82
2022/05/20 13:32:30;;;;;;;5.10;2.67;;;21.00;91.20;;;;;;4976213;28;20053;-82
2022/05/20 13:35:01;;;;;;;3.60;2.20;;;20.90;89.60;;;;;;4976756;28;20344;-81
2022/05/20 13:37:50;;;;;;;3.88;2.42;;;20.80;91.30;;;;;;4976076;28;20055;-82
2022/05/20 13:40:33;;;;;;;3.85;2.20;;;20.60;90.40;;;;;;4975452;28;20486;-81
2022/05/20 13:43:01;;;;;;;4.43;2.50;;;20.60;88.40;;;;;;4975102;28;20105;-81
2022/05/20 13:51:07;;;;;;;3.42;3.03;;;20.30;91.80;;;;;;4973238;28;20076;-81
2022/05/20 13:53:35;;;;;;;3.83;2.25;;;20.10;93.00;;;;;;4956319;28;20078;-80
2022/05/20 13:56:02;;;;;;;4.00;2.50;;;20.10;93.90;;;;;;4955728;28;20061;-81
2022/05/20 13:58:29;;;;;;;5.72;2.67;;;20.00;95.00;;;;;;4972735;28;20179;-80
2022/05/20 14:01:02;;;;;;;5.00;2.60;;;19.90;96.00;;;;;;4938883;28;20054;-80
2022/05/20 14:03:41;;;;;;;4.10;2.85;;;19.80;97.10;;;;;;4954620;28;20526;-80